Time;durP1;ratioP1;P1;durP2;ratioP2;P2;SDS_P1;SDS_P2;PMS_P1;PMS_P2;Temp;Humidity;BMP_temperature;BMP_pressure;BME280_temperature;BME280_humidity;BME280_pressure;Samples;Min_cycle;Max_cycle;Signal;HPM_P1;HPM_P2
2022/03/11 00:00:39;;;;;;;;;;;21.40;25.60;;;;;;5053647;28;19961;-59
2022/03/11 00:03:08;;;;;;;;;;;21.40;25.60;;;;;;5054920;28;19912;-58
2022/03/11 00:05:33;;;;;;;;;;;21.40;25.60;;;;;;5052727;28;20007;-59
2022/03/11 00:07:59;;;;;;;;;;;21.40;25.50;;;;;;5055324;28;19936;-57
2022/03/11 00:10:25;;;;;;;;;;;21.40;25.50;;;;;;5056031;28;19948;-59
2022/03/11 00:12:50;;;;;;;;;;;21.40;25.60;;;;;;5056963;28;20209;-59
2022/03/11 00:15:16;;;;;;;;;;;21.40;25.60;;;;;;5054827;28;19909;-57
2022/03/11 00:17:42;;;;;;;;;;;21.40;25.60;;;;;;5055869;28;19916;-58
2022/03/11 00:20:08;;;;;;;;;;;21.40;25.60;;;;;;5053522;28;19919;-57
2022/03/11 00:22:34;;;;;;;;;;;21.40;25.60;;;;;;5056294;28;19944;-59
2022/03/11 00:25:00;;;;;;;;;;;21.40;25.50;;;;;;5054311;28;19991;-59
2022/03/11 00:27:25;;;;;;;;;;;21.40;25.50;;;;;;5057292;28;19917;-51
2022/03/11 00:29:52;;;;;;;;;;;21.40;25.50;;;;;;5055354;28;19909;-55
2022/03/11 00:32:17;;;;;;;;;;;21.40;25.60;;;;;;5056585;28;20011;-54
2022/03/11 00:34:43;;;;;;;;;;;21.40;25.60;;;;;;5053881;28;19940;-54
2022/03/11 00:37:11;;;;;;;;;;;21.40;25.60;;;;;;5056759;28;19916;-51
2022/03/11 00:39:37;;;;;;;;;;;21.40;25.60;;;;;;5055700;28;19908;-55
2022/03/11 00:42:03;;;;;;;;;;;21.40;25.60;;;;;;5038453;28;19909;-55
2022/03/11 00:44:29;;;;;;;;;;;21.40;25.60;;;;;;5049482;28;19909;-54
2022/03/11 00:46:55;;;;;;;;;;;21.40;25.50;;;;;;5056483;28;20003;-52
2022/03/11 00:49:21;;;;;;;;;;;21.40;25.50;;;;;;5052274;28;20362;-54
2022/03/11 00:51:46;;;;;;;;;;;21.40;25.50;;;;;;5036322;28;19927;-53
2022/03/11 00:54:12;;;;;;;;;;;21.40;25.50;;;;;;5047582;28;20016;-54
2022/03/11 00:56:38;;;;;;;;;;;21.40;25.50;;;;;;5055894;28;19923;-54
2022/03/11 00:59:03;;;;;;;;;;;21.40;25.50;;;;;;5051915;28;19913;-54
2022/03/11 01:01:29;;;;;;;;;;;21.40;25.50;;;;;;5037686;28;20007;-52
2022/03/11 01:03:54;;;;;;;;;;;21.40;25.50;;;;;;5036809;28;19909;-52
2022/03/11 01:06:20;;;;;;;;;;;21.30;25.40;;;;;;5037358;28;19924;-55
2022/03/11 01:08:46;;;;;;;;;;;21.30;25.40;;;;;;5055809;28;19964;-52
2022/03/11 01:11:12;;;;;;;;;;;21.30;25.40;;;;;;5054563;28;19920;-54
2022/03/11 01:13:38;;;;;;;;;;;21.30;25.40;;;;;;5055310;28;20002;-51
2022/03/11 01:16:05;;;;;;;;;;;21.30;25.40;;;;;;5054408;28;19909;-53
2022/03/11 01:18:31;;;;;;;;;;;21.30;25.40;;;;;;5054630;28;19919;-50
2022/03/11 01:20:56;;;;;;;;;;;21.30;25.40;;;;;;5038784;28;19909;-54
2022/03/11 01:23:22;;;;;;;;;;;21.30;25.50;;;;;;5053199;28;19944;-52
2022/03/11 01:25:48;;;;;;;;;;;21.30;25.50;;;;;;5043829;28;19914;-52
2022/03/11 01:28:13;;;;;;;;;;;21.30;25.50;;;;;;5054938;28;19919;-53
2022/03/11 01:30:40;;;;;;;;;;;21.30;25.50;;;;;;5055675;28;19909;-51
2022/03/11 01:33:05;;;;;;;;;;;21.30;25.50;;;;;;5040745;28;19921;-51
2022/03/11 01:35:32;;;;;;;;;;;21.30;25.50;;;;;;5035502;28;19909;-52
2022/03/11 01:37:58;;;;;;;;;;;21.30;25.50;;;;;;5047800;28;20347;-55
2022/03/11 01:40:24;;;;;;;;;;;21.30;25.60;;;;;;5035784;28;20340;-54
2022/03/11 01:42:49;;;;;;;;;;;21.30;25.60;;;;;;5049427;28;20344;-50
2022/03/11 01:45:15;;;;;;;;;;;21.30;25.60;;;;;;5055456;28;20003;-55
2022/03/11 01:47:42;;;;;;;;;;;21.30;25.60;;;;;;5051524;28;19908;-54
2022/03/11 01:50:08;;;;;;;;;;;21.30;25.60;;;;;;5051061;28;19979;-50
2022/03/11 01:52:34;;;;;;;;;;;21.30;25.60;;;;;;5054014;28;20036;-57
2022/03/11 01:54:59;;;;;;;;;;;21.20;25.60;;;;;;5055588;28;19912;-52
2022/03/11 01:57:25;;;;;;;;;;;21.20;25.60;;;;;;5054045;28;19908;-54
2022/03/11 01:59:53;;;;;;;;;;;21.30;25.70;;;;;;5055288;28;19995;-54
2022/03/11 02:02:20;;;;;;;;;;;21.30;25.70;;;;;;5047182;28;20221;-56
2022/03/11 02:04:46;;;;;;;;;;;21.20;25.70;;;;;;5036051;28;19916;-50
2022/03/11 02:07:12;;;;;;;;;;;21.30;25.70;;;;;;5047718;28;20312;-49
2022/03/11 02:09:37;;;;;;;;;;;21.20;25.70;;;;;;5055560;28;20332;-55
2022/03/11 02:12:03;;;;;;;;;;;21.20;25.70;;;;;;5052745;28;19912;-54
2022/03/11 02:14:29;;;;;;;;;;;21.20;25.70;;;;;;5047608;28;19913;-54
2022/03/11 02:16:54;;;;;;;;;;;21.20;25.70;;;;;;5036414;28;19915;-54
2022/03/11 02:19:20;;;;;;;;;;;21.20;25.70;;;;;;5054543;28;19909;-53
2022/03/11 02:21:47;;;;;;;;;;;21.20;25.70;;;;;;5054672;28;19978;-50
2022/03/11 02:24:15;;;;;;;;;;;21.20;25.70;;;;;;5054274;28;19909;-53
2022/03/11 02:26:41;;;;;;;;;;;21.20;25.70;;;;;;5052781;28;19995;-55
2022/03/11 02:29:06;;;;;;;;;;;21.20;25.80;;;;;;5053850;28;19909;-54
2022/03/11 02:31:33;;;;;;;;;;;21.20;25.80;;;;;;5052977;28;19952;-51
2022/03/11 02:33:59;;;;;;;;;;;21.20;25.80;;;;;;5055652;28;19923;-53
2022/03/11 02:36:25;;;;;;;;;;;21.20;25.80;;;;;;5054338;28;19931;-51
2022/03/11 02:38:51;;;;;;;;;;;21.20;25.80;;;;;;5054033;28;20328;-52
2022/03/11 02:41:17;;;;;;;;;;;21.20;25.80;;;;;;5055298;28;19913;-54
2022/03/11 02:43:43;;;;;;;;;;;21.20;25.80;;;;;;5052587;28;19987;-51
2022/03/11 02:46:09;;;;;;;;;;;21.20;25.80;;;;;;5051542;28;19944;-52
2022/03/11 02:48:35;;;;;;;;;;;21.20;25.80;;;;;;5040295;28;19905;-52
2022/03/11 02:51:01;;;;;;;;;;;21.20;25.80;;;;;;5056980;28;19909;-56
2022/03/11 02:53:26;;;;;;;;;;;21.20;25.80;;;;;;5058237;28;20250;-55
2022/03/11 02:55:52;;;;;;;;;;;21.20;25.80;;;;;;5057605;28;19908;-55
2022/03/11 02:58:20;;;;;;;;;;;21.20;25.80;;;;;;5058844;28;20352;-54
2022/03/11 03:00:45;;;;;;;;;;;21.20;25.80;;;;;;5055898;28;19962;-55
2022/03/11 03:03:11;;;;;;;;;;;21.10;25.80;;;;;;5058404;28;19916;-55
2022/03/11 03:05:37;;;;;;;;;;;21.20;25.80;;;;;;5056885;28;19919;-54
2022/03/11 03:08:06;;;;;;;;;;;21.10;25.80;;;;;;5057170;28;19986;-53
2022/03/11 03:10:32;;;;;;;;;;;21.10;25.80;;;;;;5044837;28;20263;-55
2022/03/11 03:12:58;;;;;;;;;;;21.10;25.80;;;;;;5057867;28;19928;-54
2022/03/11 03:15:25;;;;;;;;;;;21.10;25.80;;;;;;5052912;28;20354;-52
2022/03/11 03:17:51;;;;;;;;;;;21.10;25.80;;;;;;5058481;28;19908;-52
2022/03/11 03:20:17;;;;;;;;;;;21.10;25.80;;;;;;5055550;28;19982;-53
2022/03/11 03:22:43;;;;;;;;;;;21.10;25.80;;;;;;5058130;28;20000;-54
2022/03/11 03:25:11;;;;;;;;;;;21.20;25.80;;;;;;5055620;28;19905;-53
2022/03/11 03:27:37;;;;;;;;;;;21.10;25.80;;;;;;5057816;28;19909;-53
2022/03/11 03:30:03;;;;;;;;;;;21.10;25.80;;;;;;5051506;28;20281;-53
2022/03/11 03:32:29;;;;;;;;;;;21.10;25.80;;;;;;5057339;28;19916;-54
2022/03/11 03:34:55;;;;;;;;;;;21.10;25.80;;;;;;5056778;28;19909;-53
2022/03/11 03:37:20;;;;;;;;;;;21.10;25.80;;;;;;5049751;28;19996;-51
2022/03/11 03:39:46;;;;;;;;;;;21.10;25.80;;;;;;5058229;28;20323;-55
2022/03/11 03:42:12;;;;;;;;;;;21.10;25.80;;;;;;5050094;28;19920;-54
2022/03/11 03:44:37;;;;;;;;;;;21.10;25.80;;;;;;5039818;28;20011;-53
2022/03/11 03:47:04;;;;;;;;;;;21.10;25.80;;;;;;5049811;28;19909;-53
2022/03/11 03:49:30;;;;;;;;;;;21.10;26.30;;;;;;5037621;28;19909;-52
2022/03/11 03:51:56;;;;;;;;;;;21.10;25.80;;;;;;5041031;28;19917;-56
2022/03/11 03:54:21;;;;;;;;;;;21.00;25.80;;;;;;5037645;28;19996;-51
2022/03/11 03:56:48;;;;;;;;;;;21.10;25.80;;;;;;5041463;28;20319;-50
2022/03/11 03:59:13;;;;;;;;;;;21.00;25.80;;;;;;5037427;28;19952;-53
2022/03/11 04:01:40;;;;;;;;;;;21.00;25.80;;;;;;5057008;28;19916;-51
2022/03/11 04:04:07;;;;;;;;;;;21.00;25.80;;;;;;5049888;28;19909;-54
2022/03/11 04:06:34;;;;;;;;;;;21.00;25.80;;;;;;5051229;28;19955;-53
2022/03/11 04:09:00;;;;;;;;;;;21.00;25.80;;;;;;5037272;28;20034;-53
2022/03/11 04:11:26;;;;;;;;;;;21.00;25.80;;;;;;5048003;28;20075;-51
2022/03/11 04:13:53;;;;;;;;;;;21.00;25.80;;;;;;5041775;28;19908;-55
2022/03/11 04:16:18;;;;;;;;;;;21.00;25.80;;;;;;5055407;28;19909;-52
2022/03/11 04:18:45;;;;;;;;;;;21.00;25.80;;;;;;5039290;28;19908;-53
2022/03/11 04:21:14;;;;;;;;;;;21.00;25.80;;;;;;5056374;28;20264;-52
2022/03/11 04:23:40;;;;;;;;;;;21.00;25.80;;;;;;5056515;28;20328;-54
2022/03/11 04:26:06;;;;;;;;;;;21.00;25.80;;;;;;5051497;28;19945;-56
2022/03/11 04:28:32;;;;;;;;;;;21.00;25.80;;;;;;5053370;28;20335;-50
2022/03/11 04:30:58;;;;;;;;;;;21.00;25.80;;;;;;5055498;28;19974;-56
2022/03/11 04:33:25;;;;;;;;;;;21.00;25.80;;;;;;5055833;28;19924;-51
2022/03/11 04:35:50;;;;;;;;;;;21.00;25.80;;;;;;5054369;28;19920;-53
2022/03/11 04:38:16;;;;;;;;;;;21.00;25.90;;;;;;5054283;28;20320;-49
2022/03/11 04:40:41;;;;;;;;;;;21.00;25.90;;;;;;5054724;28;19909;-52
2022/03/11 04:43:07;;;;;;;;;;;21.00;25.90;;;;;;5050244;28;20080;-53
2022/03/11 04:45:33;;;;;;;;;;;21.00;25.90;;;;;;5055768;28;19908;-55
2022/03/11 04:47:59;;;;;;;;;;;20.90;25.80;;;;;;5049496;28;20296;-53
2022/03/11 04:50:25;;;;;;;;;;;20.90;25.80;;;;;;5056085;28;19909;-51
2022/03/11 04:52:51;;;;;;;;;;;21.00;25.90;;;;;;5054389;28;19916;-54
2022/03/11 04:55:17;;;;;;;;;;;20.90;25.80;;;;;;5056529;28;19963;-53
2022/03/11 04:57:44;;;;;;;;;;;21.00;25.90;;;;;;5049993;28;20224;-52
2022/03/11 05:00:11;;;;;;;;;;;20.90;25.90;;;;;;5047181;28;19910;-48
2022/03/11 05:02:37;;;;;;;;;;;21.00;25.90;;;;;;5052068;28;19936;-56
2022/03/11 05:05:04;;;;;;;;;;;20.90;25.90;;;;;;5046765;28;19909;-51
2022/03/11 05:07:29;;;;;;;;;;;20.90;25.90;;;;;;5046213;28;19935;-51
2022/03/11 05:09:55;;;;;;;;;;;20.90;25.90;;;;;;5053891;28;19909;-53
2022/03/11 05:12:20;;;;;;;;;;;21.00;25.90;;;;;;5055502;28;19924;-49
2022/03/11 05:14:48;;;;;;;;;;;20.90;25.90;;;;;;5054979;28;19919;-51
2022/03/11 05:17:16;;;;;;;;;;;21.00;25.90;;;;;;5054791;28;20355;-52
2022/03/11 05:19:45;;;;;;;;;;;20.90;25.90;;;;;;5048448;28;19945;-53
2022/03/11 05:22:11;;;;;;;;;;;20.90;26.00;;;;;;5043703;28;19951;-53
2022/03/11 05:24:37;;;;;;;;;;;20.90;26.00;;;;;;5050017;28;19948;-55
2022/03/11 05:27:03;;;;;;;;;;;21.00;26.10;;;;;;5042344;28;19962;-52
2022/03/11 05:29:29;;;;;;;;;;;20.90;26.10;;;;;;5051855;28;20336;-53
2022/03/11 05:31:55;;;;;;;;;;;21.00;26.10;;;;;;5038815;28;19921;-51
2022/03/11 05:34:20;;;;;;;;;;;20.90;26.10;;;;;;5052674;28;19909;-53
2022/03/11 05:36:46;;;;;;;;;;;20.90;26.10;;;;;;5040107;28;19909;-55
2022/03/11 05:39:12;;;;;;;;;;;20.90;26.10;;;;;;5037054;28;19915;-53
2022/03/11 05:41:38;;;;;;;;;;;20.90;26.10;;;;;;5054806;28;19917;-53
2022/03/11 05:44:04;;;;;;;;;;;20.90;26.10;;;;;;5047886;28;19912;-54
2022/03/11 05:46:30;;;;;;;;;;;20.90;26.10;;;;;;5055185;28;19971;-54
2022/03/11 05:48:55;;;;;;;;;;;20.90;26.10;;;;;;5036375;28;20324;-51
2022/03/11 05:51:21;;;;;;;;;;;20.90;26.10;;;;;;5054559;28;19917;-57
2022/03/11 05:53:46;;;;;;;;;;;20.90;26.10;;;;;;5053981;28;19920;-51
2022/03/11 05:56:12;;;;;;;;;;;20.90;26.10;;;;;;5055110;28;19908;-51
2022/03/11 05:58:38;;;;;;;;;;;20.90;26.10;;;;;;5054591;28;19913;-52
2022/03/11 06:01:04;;;;;;;;;;;20.90;26.10;;;;;;5051494;28;19962;-52
2022/03/11 06:03:30;;;;;;;;;;;20.90;26.10;;;;;;5045443;28;19916;-53
2022/03/11 06:05:56;;;;;;;;;;;20.90;26.10;;;;;;5046833;28;19983;-54
2022/03/11 06:08:22;;;;;;;;;;;20.90;26.10;;;;;;5038099;28;19918;-54
2022/03/11 06:10:48;;;;;;;;;;;20.90;26.10;;;;;;5048310;28;19913;-51
2022/03/11 06:13:14;;;;;;;;;;;20.90;26.10;;;;;;5044804;28;19917;-53
2022/03/11 06:15:41;;;;;;;;;;;20.90;26.10;;;;;;5054121;28;19919;-53
2022/03/11 06:18:07;;;;;;;;;;;20.90;26.10;;;;;;5054514;28;20335;-53
2022/03/11 06:20:32;;;;;;;;;;;20.90;26.10;;;;;;5057863;28;19909;-56
2022/03/11 06:22:58;;;;;;;;;;;20.90;26.10;;;;;;5059263;28;19916;-55
2022/03/11 06:25:24;;;;;;;;;;;20.90;26.10;;;;;;5046591;28;19909;-55
2022/03/11 06:27:49;;;;;;;;;;;20.90;26.10;;;;;;5044740;28;20272;-57
2022/03/11 06:30:15;;;;;;;;;;;20.90;26.10;;;;;;5058317;28;20201;-54
2022/03/11 06:32:44;;;;;;;;;;;20.90;26.10;;;;;;5047919;28;19916;-54
2022/03/11 06:35:10;;;;;;;;;;;20.90;26.10;;;;;;5041174;28;20259;-55
2022/03/11 06:37:37;;;;;;;;;;;20.90;26.10;;;;;;5053533;28;20367;-55
2022/03/11 06:40:03;;;;;;;;;;;20.90;26.10;;;;;;5049288;28;19908;-54
2022/03/11 06:42:38;;;;;;;;;;;20.90;26.10;;;;;;5028762;28;19943;-52
2022/03/11 06:45:05;;;;;;;;;;;20.90;26.10;;;;;;5058401;28;20347;-53
2022/03/11 06:47:30;;;;;;;;;;;20.90;26.10;;;;;;5055963;28;19908;-55
2022/03/11 06:49:56;;;;;;;;;;;20.80;26.00;;;;;;5047248;28;19909;-56
2022/03/11 06:52:22;;;;;;;;;;;20.90;26.10;;;;;;5048824;28;19917;-56
2022/03/11 06:54:48;;;;;;;;;;;20.90;26.10;;;;;;5058429;28;20244;-54
2022/03/11 06:57:15;;;;;;;;;;;20.80;26.00;;;;;;5055100;28;19959;-53
2022/03/11 06:59:43;;;;;;;;;;;20.80;26.10;;;;;;5058275;28;19919;-55
2022/03/11 07:02:08;;;;;;;;;;;20.80;26.10;;;;;;5053164;28;19927;-55
2022/03/11 07:04:34;;;;;;;;;;;20.80;26.10;;;;;;5049528;28;19908;-54
2022/03/11 07:07:00;;;;;;;;;;;20.80;26.10;;;;;;5056955;28;19913;-51
2022/03/11 07:09:26;;;;;;;;;;;20.80;26.10;;;;;;5056784;28;19923;-53
2022/03/11 07:11:57;;;;;;;;;;;20.80;26.00;;;;;;5057055;28;19986;-52
2022/03/11 07:14:25;;;;;;;;;;;20.90;26.10;;;;;;5058475;28;19992;-52
2022/03/11 07:16:52;;;;;;;;;;;20.80;26.10;;;;;;5057479;28;19995;-56
2022/03/11 07:19:18;;;;;;;;;;;20.80;26.10;;;;;;5056995;28;19917;-51
2022/03/11 07:21:46;;;;;;;;;;;20.80;26.10;;;;;;5052714;28;20473;-52
2022/03/11 07:24:12;;;;;;;;;;;20.80;26.10;;;;;;5056003;28;19932;-54
2022/03/11 07:26:37;;;;;;;;;;;20.80;26.10;;;;;;5054992;28;20259;-51
2022/03/11 07:29:03;;;;;;;;;;;20.80;26.10;;;;;;5038703;28;19913;-49
2022/03/11 07:31:29;;;;;;;;;;;20.80;26.10;;;;;;5048329;28;20255;-56
2022/03/11 07:33:55;;;;;;;;;;;20.80;26.00;;;;;;5057680;28;19909;-54
2022/03/11 07:36:22;;;;;;;;;;;20.80;26.00;;;;;;5053970;28;20265;-54
2022/03/11 07:38:48;;;;;;;;;;;20.80;26.10;;;;;;5056786;28;19952;-51
2022/03/11 07:41:17;;;;;;;;;;;20.80;26.10;;;;;;5051899;28;19955;-52
2022/03/11 07:43:44;;;;;;;;;;;20.80;26.10;;;;;;5057849;28;19916;-55
2022/03/11 07:46:14;;;;;;;;;;;20.80;26.10;;;;;;5042455;28;19971;-51
2022/03/11 07:48:40;;;;;;;;;;;20.80;26.10;;;;;;5057153;28;20286;-50
2022/03/11 07:51:06;;;;;;;;;;;20.80;26.00;;;;;;5040875;28;20271;-51
2022/03/11 07:53:32;;;;;;;;;;;20.80;26.00;;;;;;5056887;28;19916;-49
2022/03/11 07:55:57;;;;;;;;;;;20.80;26.00;;;;;;5055680;28;19916;-52
2022/03/11 07:58:24;;;;;;;;;;;20.80;26.00;;;;;;5037605;28;19909;-54
2022/03/11 08:00:53;;;;;;;;;;;20.80;25.90;;;;;;5049432;28;20214;-54
2022/03/11 08:03:19;;;;;;;;;;;20.80;25.90;;;;;;5036904;28;19932;-51
2022/03/11 08:05:45;;;;;;;;;;;20.80;25.90;;;;;;5046858;28;19924;-53
2022/03/11 08:08:11;;;;;;;;;;;20.80;25.80;;;;;;5041607;28;19975;-52
2022/03/11 08:10:37;;;;;;;;;;;20.80;25.80;;;;;;5054169;28;19967;-54
2022/03/11 08:13:03;;;;;;;;;;;20.80;25.80;;;;;;5057321;28;19940;-51
2022/03/11 08:15:29;;;;;;;;;;;20.80;25.70;;;;;;5052786;28;20315;-54
2022/03/11 08:17:56;;;;;;;;;;;20.80;25.70;;;;;;5056404;28;19909;-51
2022/03/11 08:20:22;;;;;;;;;;;20.80;25.70;;;;;;5050499;28;19919;-53
2022/03/11 08:22:49;;;;;;;;;;;20.80;25.70;;;;;;5056632;28;20008;-49
2022/03/11 08:25:15;;;;;;;;;;;20.80;25.70;;;;;;5044131;28;20411;-51
2022/03/11 08:27:41;;;;;;;;;;;20.80;25.60;;;;;;5045335;28;20003;-52
2022/03/11 08:30:08;;;;;;;;;;;20.80;25.60;;;;;;5053860;28;19922;-53
2022/03/11 08:32:34;;;;;;;;;;;20.80;25.60;;;;;;5049466;28;19917;-52
2022/03/11 08:35:00;;;;;;;;;;;20.80;25.60;;;;;;5052934;28;19916;-54
2022/03/11 08:37:26;;;;;;;;;;;20.80;25.60;;;;;;5054659;28;20109;-57
2022/03/11 08:39:52;;;;;;;;;;;20.80;25.60;;;;;;5050612;28;19963;-55
2022/03/11 08:42:18;;;;;;;;;;;20.80;25.50;;;;;;5054115;28;19920;-52
2022/03/11 08:44:43;;;;;;;;;;;20.80;25.50;;;;;;5053062;28;20379;-55
2022/03/11 08:47:09;;;;;;;;;;;20.80;25.50;;;;;;5051539;28;19919;-55
2022/03/11 08:49:36;;;;;;;;;;;20.80;25.50;;;;;;5054493;28;20348;-54
2022/03/11 08:52:01;;;;;;;;;;;20.80;25.50;;;;;;5043076;28;19963;-54
2022/03/11 08:54:27;;;;;;;;;;;20.80;25.50;;;;;;5054319;28;19912;-54
2022/03/11 08:56:54;;;;;;;;;;;20.80;25.40;;;;;;5053853;28;20205;-49
2022/03/11 08:59:20;;;;;;;;;;;20.80;25.40;;;;;;5037220;28;20004;-52
2022/03/11 09:01:46;;;;;;;;;;;20.80;25.40;;;;;;5041685;28;19947;-56
2022/03/11 09:04:12;;;;;;;;;;;20.80;25.40;;;;;;5053783;28;19959;-53
2022/03/11 09:06:37;;;;;;;;;;;20.80;25.40;;;;;;5049088;28;19913;-54
2022/03/11 09:09:03;;;;;;;;;;;20.80;25.40;;;;;;5035496;28;19963;-55
2022/03/11 09:11:29;;;;;;;;;;;20.70;25.40;;;;;;5035741;28;19909;-51
2022/03/11 09:13:54;;;;;;;;;;;20.80;25.40;;;;;;5036015;28;19920;-54
2022/03/11 09:16:20;;;;;;;;;;;20.80;25.40;;;;;;5052561;28;19925;-56
2022/03/11 09:18:46;;;;;;;;;;;20.80;25.40;;;;;;5055769;28;19960;-52
2022/03/11 09:21:12;;;;;;;;;;;20.70;25.30;;;;;;5054315;28;19935;-54
2022/03/11 09:23:39;;;;;;;;;;;20.80;25.40;;;;;;5048973;28;19913;-49
2022/03/11 09:26:05;;;;;;;;;;;20.80;25.30;;;;;;5054803;28;20390;-52
2022/03/11 09:28:31;;;;;;;;;;;20.80;25.30;;;;;;5042611;28;20359;-54
2022/03/11 09:30:57;;;;;;;;;;;20.80;25.30;;;;;;5035661;28;19936;-52
2022/03/11 09:33:23;;;;;;;;;;;20.80;25.30;;;;;;5035862;28;20291;-54
2022/03/11 09:35:48;;;;;;;;;;;20.80;25.30;;;;;;5014656;28;19923;-53
2022/03/11 09:38:14;;;;;;;;;;;20.80;25.30;;;;;;5055564;28;20231;-54
2022/03/11 09:40:42;;;;;;;;;;;20.80;25.30;;;;;;5053758;28;19919;-54
2022/03/11 09:43:12;;;;;;;;;;;20.80;25.30;;;;;;5054990;28;19987;-53
2022/03/11 09:45:38;;;;;;;;;;;20.80;25.30;;;;;;5036236;28;20395;-55
2022/03/11 09:48:05;;;;;;;;;;;20.80;25.30;;;;;;5053246;28;19948;-55
2022/03/11 09:50:30;;;;;;;;;;;20.80;25.40;;;;;;5052241;28;20004;-54
2022/03/11 09:52:57;;;;;;;;;;;20.80;25.40;;;;;;5052076;28;20007;-51
2022/03/11 09:55:22;;;;;;;;;;;20.80;25.40;;;;;;5045155;28;19909;-52
2022/03/11 09:57:49;;;;;;;;;;;20.80;25.40;;;;;;5040309;28;20244;-54
2022/03/11 10:00:15;;;;;;;;;;;20.80;25.40;;;;;;5034977;28;19909;-53
2022/03/11 10:02:42;;;;;;;;;;;20.80;25.40;;;;;;5048875;28;20365;-52
2022/03/11 10:05:11;;;;;;;;;;;20.80;25.40;;;;;;5054615;28;19909;-55
2022/03/11 10:07:37;;;;;;;;;;;20.80;25.40;;;;;;5053307;28;19924;-50
2022/03/11 10:10:17;;;;;;;;;;;20.80;25.40;;;;;;5054823;28;19920;-55
2022/03/11 10:12:44;;;;;;;;;;;20.80;25.50;;;;;;5053380;28;19917;-51
2022/03/11 10:15:12;;;;;;;;;;;20.80;25.50;;;;;;5037913;28;19932;-51
2022/03/11 10:17:40;;;;;;;;;;;20.80;25.50;;;;;;5054156;28;20017;-49
2022/03/11 10:20:10;;;;;;;;;;;20.80;26.00;;;;;;5055093;28;19913;-54
2022/03/11 10:22:37;;;;;;;;;;;20.80;25.50;;;;;;5051500;28;20934;-52
2022/03/11 10:25:09;;;;;;;;;;;20.80;25.50;;;;;;5046112;28;19952;-54
2022/03/11 10:27:54;;;;;;;;;;;20.80;25.50;;;;;;5037835;28;19931;-54
2022/03/11 10:30:21;;;;;;;;;;;20.80;25.50;;;;;;5045355;28;19920;-48
2022/03/11 10:32:52;;;;;;;;;;;20.80;25.60;;;;;;5039076;28;19920;-51
2022/03/11 10:35:21;;;;;;;;;;;20.80;25.60;;;;;;5053804;28;19913;-51
2022/03/11 10:37:57;;;;;;;;;;;20.80;25.70;;;;;;5049683;28;19940;-53
2022/03/11 10:40:22;;;;;;;;;;;20.80;25.80;;;;;;5049423;28;19908;-57
2022/03/11 10:42:48;;;;;;;;;;;20.90;25.90;;;;;;5053561;28;19924;-53
2022/03/11 10:45:14;;;;;;;;;;;20.90;26.00;;;;;;5053050;28;19916;-55
2022/03/11 10:47:41;;;;;;;;;;;21.00;26.10;;;;;;5035375;28;19988;-56
2022/03/11 10:50:08;;;;;;;;;;;21.00;26.10;;;;;;5050701;28;20322;-55
2022/03/11 10:52:41;;;;;;;;;;;21.00;26.10;;;;;;5053276;28;19939;-56
2022/03/11 10:55:28;;;;;;;;;;;21.00;26.10;;;;;;5047784;28;19986;-53
2022/03/11 10:57:55;;;;;;;;;;;21.10;26.20;;;;;;5052784;28;20001;-54
2022/03/11 11:00:22;;;;;;;;;;;21.10;26.20;;;;;;5053109;28;19963;-51
2022/03/11 11:02:50;;;;;;;;;;;21.10;26.20;;;;;;5044736;28;19913;-50
2022/03/11 11:05:16;;;;;;;;;;;21.20;26.20;;;;;;5055595;28;19908;-51
2022/03/11 11:07:43;;;;;;;;;;;21.20;26.20;;;;;;5055382;28;20244;-53
2022/03/11 11:10:09;;;;;;;;;;;21.20;26.20;;;;;;5058388;28;19919;-51
2022/03/11 11:12:34;;;;;;;;;;;21.20;26.20;;;;;;5056735;28;20267;-53
2022/03/11 11:15:01;;;;;;;;;;;21.20;26.20;;;;;;5049609;28;19974;-53
2022/03/11 11:17:27;;;;;;;;;;;21.20;26.10;;;;;;5053620;28;19946;-56
2022/03/11 11:19:53;;;;;;;;;;;21.20;26.10;;;;;;5056619;28;19944;-53
2022/03/11 11:22:19;;;;;;;;;;;21.20;26.00;;;;;;5056419;28;19948;-53
2022/03/11 11:24:45;;;;;;;;;;;21.30;26.10;;;;;;5043287;28;20063;-51
2022/03/11 11:27:11;;;;;;;;;;;21.30;26.00;;;;;;5040748;28;20253;-50
2022/03/11 11:29:38;;;;;;;;;;;21.30;26.00;;;;;;5047570;28;19920;-51
2022/03/11 11:32:08;;;;;;;;;;;21.30;26.00;;;;;;5052920;28;19934;-48
2022/03/11 11:34:35;;;;;;;;;;;21.30;26.00;;;;;;5057144;28;20058;-51
2022/03/11 11:37:01;;;;;;;;;;;21.30;26.00;;;;;;5057187;28;19909;-58
2022/03/11 11:39:36;;;;;;;;;;;21.40;26.10;;;;;;5047049;28;20316;-59
2022/03/11 11:42:06;;;;;;;;;;;21.40;26.10;;;;;;5055614;28;19908;-51
2022/03/11 11:44:33;;;;;;;;;;;21.40;26.10;;;;;;5037765;28;19909;-51
2022/03/11 11:47:06;;;;;;;;;;;21.40;26.10;;;;;;5038262;28;19999;-47
2022/03/11 11:49:42;;;;;;;;;;;21.40;26.10;;;;;;5050284;28;19909;-53
2022/03/11 11:52:11;;;;;;;;;;;21.40;26.00;;;;;;5038859;28;19936;-48
2022/03/11 11:54:39;;;;;;;;;;;21.40;26.00;;;;;;5051516;28;19920;-52
2022/03/11 11:57:05;;;;;;;;;;;21.40;26.00;;;;;;5038778;28;19915;-52
2022/03/11 11:59:35;;;;;;;;;;;21.40;26.00;;;;;;5040475;28;19909;-49
2022/03/11 12:02:02;;;;;;;;;;;21.50;26.00;;;;;;5055971;28;19920;-53
2022/03/11 12:04:31;;;;;;;;;;;21.50;26.00;;;;;;5054270;28;19952;-50
2022/03/11 12:07:01;;;;;;;;;;;21.50;26.00;;;;;;5053062;28;20339;-52
2022/03/11 12:09:45;;;;;;;;;;;21.50;25.90;;;;;;5021344;28;19916;-48
2022/03/11 12:12:29;;;;;;;;;;;21.40;25.90;;;;;;5055248;28;19929;-51
2022/03/11 12:14:58;;;;;;;;;;;21.40;25.90;;;;;;5025777;28;19947;-51
2022/03/11 12:17:36;;;;;;;;;;;21.40;25.80;;;;;;5055450;28;19909;-50
2022/03/11 12:20:20;;;;;;;;;;;21.40;25.80;;;;;;5038445;28;19908;-52
2022/03/11 12:23:05;;;;;;;;;;;21.40;25.80;;;;;;5036698;28;20307;-57
2022/03/11 12:25:32;;;;;;;;;;;21.40;25.80;;;;;;5054113;28;20236;-57
2022/03/11 12:28:02;;;;;;;;;;;21.40;25.80;;;;;;5054967;28;20389;-60
2022/03/11 12:30:29;;;;;;;;;;;21.40;25.90;;;;;;5050610;28;19973;-59
2022/03/11 12:32:55;;;;;;;;;;;21.40;25.90;;;;;;5042871;28;19917;-62
2022/03/11 12:35:22;;;;;;;;;;;21.40;25.90;;;;;;5056756;28;19909;-58
2022/03/11 12:37:48;;;;;;;;;;;21.40;26.00;;;;;;5037157;28;19917;-54
2022/03/11 12:40:13;;;;;;;;;;;21.40;26.00;;;;;;5040027;28;20043;-55
2022/03/11 12:42:40;;;;;;;;;;;21.40;26.00;;;;;;5048245;28;19908;-54
2022/03/11 12:45:06;;;;;;;;;;;21.40;26.00;;;;;;5051487;28;19924;-57
2022/03/11 12:47:39;;;;;;;;;;;21.40;26.00;;;;;;5054454;28;20251;-57
2022/03/11 12:50:07;;;;;;;;;;;21.50;26.00;;;;;;5056383;28;19908;-55
2022/03/11 12:52:39;;;;;;;;;;;21.40;25.90;;;;;;5055914;28;20024;-56
2022/03/11 12:55:25;;;;;;;;;;;21.50;26.00;;;;;;5055625;28;20355;-53
2022/03/11 12:57:52;;;;;;;;;;;21.50;25.90;;;;;;5055959;28;19998;-56
2022/03/11 13:00:21;;;;;;;;;;;21.40;25.90;;;;;;5051021;28;19919;-53
2022/03/11 13:02:48;;;;;;;;;;;21.40;25.90;;;;;;5054810;28;19959;-59
2022/03/11 13:05:21;;;;;;;;;;;21.50;25.90;;;;;;5055810;28;19916;-48
2022/03/11 13:07:47;;;;;;;;;;;21.50;26.00;;;;;;5054849;28;19917;-51
2022/03/11 13:10:17;;;;;;;;;;;21.50;26.00;;;;;;5052726;28;19924;-55
2022/03/11 13:12:44;;;;;;;;;;;21.50;26.00;;;;;;5055679;28;19913;-58
2022/03/11 13:15:13;;;;;;;;;;;21.50;25.90;;;;;;5054947;28;21270;-52
2022/03/11 13:17:45;;;;;;;;;;;21.60;26.00;;;;;;5055396;28;19974;-53
2022/03/11 13:20:30;;;;;;;;;;;21.60;26.00;;;;;;5058199;28;20013;-52
2022/03/11 13:22:56;;;;;;;;;;;21.60;26.00;;;;;;5053653;28;19909;-50
2022/03/11 13:25:23;;;;;;;;;;;21.60;26.00;;;;;;5055299;28;19909;-55
2022/03/11 13:27:48;;;;;;;;;;;21.60;26.00;;;;;;5054893;28;19923;-49
2022/03/11 13:30:14;;;;;;;;;;;21.60;26.10;;;;;;5052183;28;19909;-50
2022/03/11 13:32:40;;;;;;;;;;;21.60;26.10;;;;;;5026173;28;19913;-55
2022/03/11 13:35:06;;;;;;;;;;;21.60;26.10;;;;;;5054788;28;19912;-54
2022/03/11 13:37:41;;;;;;;;;;;21.60;26.10;;;;;;5055187;28;19974;-54
2022/03/11 13:40:10;;;;;;;;;;;21.70;26.20;;;;;;5055059;28;19923;-62
2022/03/11 13:42:36;;;;;;;;;;;21.60;26.10;;;;;;5055328;28;19908;-54
2022/03/11 13:45:06;;;;;;;;;;;21.60;26.10;;;;;;5054851;28;19996;-53
2022/03/11 13:47:32;;;;;;;;;;;21.60;26.10;;;;;;5055499;28;19948;-53
2022/03/11 13:50:07;;;;;;;;;;;21.60;26.10;;;;;;5054852;28;20299;-58
2022/03/11 13:52:40;;;;;;;;;;;21.60;26.10;;;;;;5055099;28;20335;-57
2022/03/11 13:55:07;;;;;;;;;;;21.50;26.10;;;;;;5054569;28;20003;-55
2022/03/11 13:57:42;;;;;;;;;;;21.60;26.20;;;;;;5056073;28;19916;-55
2022/03/11 14:00:16;;;;;;;;;;;21.60;26.20;;;;;;5053042;28;19913;-52
2022/03/11 14:02:42;;;;;;;;;;;21.70;26.20;;;;;;5049332;28;19910;-54
2022/03/11 14:05:13;;;;;;;;;;;21.70;26.20;;;;;;5050924;28;19986;-52
2022/03/11 14:07:39;;;;;;;;;;;21.70;26.20;;;;;;5045771;28;19916;-53
2022/03/11 14:10:12;;;;;;;;;;;21.60;26.10;;;;;;5043619;28;20247;-53
2022/03/11 14:12:38;;;;;;;;;;;21.70;26.20;;;;;;5050609;28;19921;-53
2022/03/11 14:15:05;;;;;;;;;;;21.70;26.20;;;;;;5048669;28;20371;-52